createdAt,value
2018-08-10T00:00:44.092Z,100941.81
2018-08-10T00:03:12.982Z,100938.24
2018-08-10T00:05:42.392Z,100937.42
2018-08-10T00:08:11.179Z,100936.38
2018-08-10T00:10:40.002Z,100931.44
2018-08-10T00:13:08.766Z,100936.38
2018-08-10T00:15:37.666Z,100939.45
2018-08-10T00:18:06.544Z,100935.37
2018-08-10T00:20:35.434Z,100937.73
2018-08-10T00:23:04.331Z,100937.73
2018-08-10T00:25:33.170Z,100937.73
2018-08-10T00:28:02.075Z,100928.22
2018-08-10T00:30:30.992Z,100926.86
2018-08-10T00:32:59.860Z,100928.56
2018-08-10T00:35:28.672Z,100920.41
2018-08-10T00:37:57.540Z,100922.63
2018-08-10T00:40:26.487Z,100917.69
2018-08-10T00:42:55.984Z,100915.82
2018-08-10T00:45:24.876Z,100920.72
2018-08-10T00:47:53.860Z,100920.72
2018-08-10T00:50:22.708Z,100919.36
2018-08-10T00:52:51.545Z,100917.69
2018-08-10T00:55:20.593Z,100916.33
2018-08-10T00:57:49.918Z,100906.30
2018-08-10T01:00:21.794Z,100909.84
2018-08-10T01:02:51.268Z,100909.84
2018-08-10T01:05:20.165Z,100905.77
2018-08-10T01:07:49.623Z,100898.64
2018-08-10T01:10:19.775Z,100894.06
2018-08-10T01:12:48.670Z,100895.73
2018-08-10T01:15:18.114Z,100897.09
2018-08-10T01:17:47.333Z,100898.14
2018-08-10T01:20:20.099Z,100897.09
2018-08-10T01:22:54.117Z,100894.37
2018-08-10T01:25:24.237Z,100897.09
2018-08-10T01:27:59.158Z,100898.96
2018-08-10T01:30:29.352Z,100898.96
2018-08-10T01:32:58.394Z,100896.24
2018-08-10T01:35:27.826Z,100895.42
2018-08-10T01:37:57.655Z,100895.42
2018-08-10T01:40:26.581Z,100890.80
2018-08-10T01:42:55.333Z,100889.13
2018-08-10T01:45:24.181Z,100883.18
2018-08-10T01:47:53.084Z,100876.38
2018-08-10T01:50:21.861Z,100873.31
2018-08-10T01:52:50.664Z,100869.23
2018-08-10T01:55:19.431Z,100871.45
2018-08-10T01:57:48.331Z,100870.59
2018-08-10T02:00:17.179Z,100865.66
2018-08-10T02:02:45.952Z,100862.94
2018-08-10T02:05:15.898Z,100860.72
2018-08-10T02:07:44.967Z,100853.61
2018-08-10T02:10:16.730Z,100852.40
2018-08-10T02:12:46.434Z,100848.32
2018-08-10T02:15:17.699Z,100845.28
2018-08-10T02:17:46.586Z,100835.42
2018-08-10T02:20:17.030Z,100833.20
2018-08-10T02:22:46.193Z,100828.30
2018-08-10T02:25:16.420Z,100823.87
2018-08-10T02:27:46.379Z,100820.66
2018-08-10T02:30:17.074Z,100812.65
2018-08-10T02:32:46.849Z,100805.53
2018-08-10T02:35:15.762Z,100798.73
2018-08-10T02:37:44.668Z,100786.16
2018-08-10T02:40:19.619Z,100789.37
2018-08-10T02:42:49.301Z,100791.24
2018-08-10T02:45:18.571Z,100782.77
2018-08-10T02:47:48.024Z,100780.55
2018-08-10T02:50:16.869Z,100778.84
2018-08-10T02:52:46.010Z,100779.70
2018-08-10T02:55:15.228Z,100769.02
2018-08-10T02:57:44.203Z,100763.58
2018-08-10T03:00:15.385Z,100774.96
2018-08-10T03:02:44.721Z,100774.96
2018-08-10T03:05:13.671Z,100771.58
2018-08-10T03:07:42.756Z,100770.22
2018-08-10T03:10:12.773Z,100771.58
2018-08-10T03:12:41.545Z,100763.58
2018-08-10T03:15:11.916Z,100756.27
2018-08-10T03:17:40.753Z,100751.87
2018-08-10T03:20:09.975Z,100742.88
2018-08-10T03:25:09.930Z,100734.88
2018-08-10T03:27:38.993Z,100726.05
2018-08-10T03:30:09.444Z,100723.34
2018-08-10T03:32:38.560Z,100717.05
2018-08-10T03:35:07.443Z,100709.20
2018-08-10T03:37:36.548Z,100691.22
2018-08-10T03:40:07.193Z,100683.91
2018-08-10T03:42:36.004Z,100685.27
2018-08-10T03:45:05.218Z,100685.09
2018-08-10T03:47:34.007Z,100679.14
2018-08-10T03:50:02.773Z,100679.30
2018-08-10T03:52:31.587Z,100682.88
2018-08-10T03:55:00.383Z,100678.79
2018-08-10T03:57:29.241Z,100673.05
2018-08-10T03:59:58.052Z,100676.92
2018-08-10T04:02:26.962Z,100663.14
2018-08-10T04:04:55.755Z,100651.95
2018-08-10T04:07:24.591Z,100643.28
2018-08-10T04:09:53.305Z,100641.08
2018-08-10T04:12:22.088Z,100650.59
2018-08-10T04:14:50.926Z,100647.37
2018-08-10T04:17:24.322Z,100642.75
2018-08-10T04:19:54.143Z,100645.86
2018-08-10T04:22:24.157Z,100643.63
2018-08-10T04:24:53.224Z,100640.03
2018-08-10T04:27:22.177Z,100637.00
2018-08-10T04:29:50.980Z,100622.55
2018-08-10T04:32:19.971Z,100621.19
2018-08-10T04:34:48.823Z,100608.11
2018-08-10T04:37:17.884Z,100606.43
2018-08-10T04:39:46.743Z,100603.37
2018-08-10T04:42:16.546Z,100603.37
2018-08-10T04:44:45.374Z,100592.15
2018-08-10T04:47:14.202Z,100593.00
2018-08-10T04:49:42.970Z,100575.53
2018-08-10T04:52:12.681Z,100561.94
2018-08-10T04:54:41.481Z,100561.08
2018-08-10T04:57:10.333Z,100554.80
2018-08-10T04:59:39.119Z,100554.80
2018-08-10T05:02:08.233Z,100557.70
2018-08-10T05:04:37.126Z,100549.20
2018-08-10T05:07:05.958Z,100556.00
2018-08-10T05:09:34.725Z,100548.04
2018-08-10T05:12:03.619Z,100553.28
2018-08-10T05:14:32.436Z,100537.83
2018-08-10T05:17:01.782Z,100526.61
2018-08-10T05:19:30.732Z,100520.86
2018-08-10T05:21:59.533Z,100516.27
2018-08-10T05:24:28.358Z,100519.16
2018-08-10T05:26:57.202Z,100522.22
2018-08-10T05:29:26.097Z,100574.17
2018-08-10T05:31:55.111Z,100574.38
2018-08-10T05:34:23.878Z,100587.62
2018-08-10T05:36:52.732Z,100581.67
2018-08-10T05:39:21.543Z,100577.94
2018-08-10T05:41:50.422Z,100578.45
2018-08-10T05:44:19.222Z,100579.81
2018-08-10T05:46:48.006Z,100574.88
2018-08-10T05:49:16.833Z,100578.10
2018-08-10T05:51:45.613Z,100573.71
2018-08-10T05:54:14.419Z,100565.87
2018-08-10T05:56:43.204Z,100555.54
2018-08-10T05:59:11.982Z,100558.25
2018-08-10T06:01:40.812Z,100565.05
2018-08-10T06:04:09.861Z,100568.78
2018-08-10T06:06:38.550Z,100571.00
2018-08-10T06:09:15.311Z,100570.66
2018-08-10T06:11:45.072Z,100572.35
2018-08-10T06:14:15.042Z,100566.41
2018-08-10T06:16:43.955Z,100552.47
2018-08-10T06:19:12.736Z,100533.10
2018-08-10T06:21:41.679Z,100528.02
2018-08-10T06:24:26.434Z,100518.50
2018-08-10T06:27:02.667Z,100498.28
2018-08-10T06:29:32.574Z,100498.62
2018-08-10T06:33:17.790Z,100509.15
2018-08-10T06:35:59.636Z,100502.55
2018-08-10T06:40:39.177Z,100484.88
2018-08-10T06:43:07.975Z,100470.30
2018-08-10T06:45:36.768Z,100471.00
2018-08-10T06:48:08.284Z,100476.44
2018-08-10T06:50:39.153Z,100482.21
2018-08-10T06:53:08.013Z,100472.70
2018-08-10T06:56:06.476Z,100462.14
2018-08-10T06:58:36.075Z,100456.39
2018-08-10T07:01:04.961Z,100453.67
2018-08-10T07:03:33.750Z,100430.57
2018-08-10T07:06:02.546Z,100439.04
2018-08-10T07:08:31.314Z,100442.27
2018-08-10T07:11:00.089Z,100454.84
2018-08-10T07:13:28.991Z,100464.35
2018-08-10T07:15:57.868Z,100467.58
2018-08-10T07:18:26.630Z,100461.29
2018-08-10T07:21:26.496Z,100462.48
2018-08-10T07:23:55.322Z,100456.70
2018-08-10T07:26:24.108Z,100464.86
2018-08-10T07:28:52.894Z,100468.94
2018-08-10T07:31:21.689Z,100467.58
2018-08-10T07:33:50.648Z,100469.98
2018-08-10T07:36:19.816Z,100465.36
2018-08-10T07:38:48.585Z,100464.00
2018-08-10T07:41:36.949Z,100465.91
2018-08-10T07:44:17.669Z,100466.41
2018-08-10T07:46:46.478Z,100460.13
2018-08-10T07:49:15.244Z,100459.28
2018-08-10T07:51:44.112Z,100467.77
2018-08-10T07:54:12.971Z,100466.41
2018-08-10T07:56:43.567Z,100467.27
2018-08-10T07:59:12.489Z,100471.14
2018-08-10T08:01:41.753Z,100470.13
2018-08-10T08:04:11.001Z,100461.98
2018-08-10T08:06:40.741Z,100453.63
2018-08-10T08:09:12.079Z,100449.55
2018-08-10T08:11:43.656Z,100446.13
2018-08-10T08:14:19.816Z,100322.56
2018-08-10T08:16:52.363Z,100439.17
2018-08-10T08:19:50.614Z,100439.48
2018-08-10T08:22:42.648Z,100441.52
2018-08-10T08:25:11.541Z,100423.85
2018-08-10T08:27:40.399Z,100415.16
2018-08-10T08:30:10.172Z,100416.66
2018-08-10T08:32:38.993Z,100413.44
2018-08-10T08:35:47.265Z,100416.80
2018-08-10T08:41:31.427Z,100430.73
2018-08-10T08:44:37.517Z,100415.79
2018-08-10T08:47:47.866Z,100423.44
2018-08-10T08:51:53.528Z,100427.00
2018-08-10T09:05:55.116Z,100417.48
2018-08-10T09:08:24.041Z,100421.72
2018-08-10T09:10:53.963Z,100430.18
2018-08-10T09:13:22.995Z,100437.97
2018-08-10T09:15:52.156Z,100423.70
2018-08-10T09:18:40.142Z,100430.45
2018-08-10T09:21:09.028Z,100435.52
2018-08-10T09:23:40.318Z,100434.81
2018-08-10T09:26:12.192Z,100439.55
2018-08-10T09:29:05.509Z,100438.02
2018-08-10T09:31:34.321Z,100448.22
2018-08-10T09:34:07.687Z,100457.23
2018-08-10T09:36:36.637Z,100467.40
2018-08-10T09:39:09.882Z,100474.54
2018-08-10T09:42:29.237Z,100475.70
2018-08-10T09:44:58.164Z,100464.83
2018-08-10T09:47:27.557Z,100451.74
2018-08-10T09:49:56.373Z,100442.88
2018-08-10T09:52:26.493Z,100438.80
2018-08-10T09:55:27.585Z,100441.34
2018-08-10T09:58:00.650Z,100435.06
2018-08-10T10:00:34.741Z,100441.86
2018-08-10T10:03:08.905Z,100438.13
2018-08-10T10:05:37.828Z,100443.87
2018-08-10T10:08:08.465Z,100445.23
2018-08-10T10:10:37.597Z,100444.72
2018-08-10T10:15:45.427Z,100446.42
2018-08-10T10:18:15.580Z,100442.34
2018-08-10T10:20:45.146Z,100444.02
2018-08-10T10:23:14.044Z,100443.50
2018-08-10T10:25:42.863Z,100431.27
2018-08-10T10:28:11.725Z,100436.20
2018-08-10T10:34:05.899Z,100425.83
2018-08-10T10:36:34.713Z,100427.70
2018-08-10T10:39:03.764Z,100425.48
2018-08-10T10:41:45.148Z,100430.41
2018-08-10T10:44:14.124Z,100425.83
2018-08-10T10:47:16.490Z,100422.26
2018-08-10T10:50:20.023Z,100424.47
2018-08-10T10:52:49.179Z,100423.82
2018-08-10T10:55:18.069Z,100421.41
2018-08-10T10:57:46.873Z,100418.69
2018-08-10T11:00:19.629Z,100429.26
2018-08-10T11:13:34.600Z,100416.77
2018-08-10T11:19:53.765Z,100422.20
2018-08-10T11:22:26.768Z,100417.95
2018-08-10T11:24:55.697Z,100421.52
2018-08-10T11:30:31.928Z,100427.41
2018-08-10T11:33:05.311Z,100434.20
2018-08-10T11:35:36.249Z,100427.75
2018-08-10T11:40:21.619Z,100432.69
2018-08-10T11:42:50.487Z,100415.64
2018-08-10T11:45:19.378Z,100437.78
2018-08-10T11:47:48.272Z,100431.33
2018-08-10T11:50:17.080Z,100433.33
2018-08-10T11:53:17.655Z,100428.41
2018-08-10T11:59:59.547Z,100435.20
2018-08-10T12:02:38.260Z,100446.59
2018-08-10T12:05:08.893Z,100441.15
2018-08-10T12:07:37.722Z,100440.98
2018-08-10T12:13:04.579Z,100448.60
2018-08-10T12:15:33.428Z,100440.13
2018-08-10T12:18:02.247Z,100448.44
2018-08-10T12:23:29.263Z,100452.82
2018-08-10T12:29:26.507Z,100465.06
2018-08-10T12:31:55.285Z,100450.95
2018-08-10T12:34:24.122Z,100442.28
2018-08-10T12:36:52.917Z,100450.79
2018-08-10T12:39:21.758Z,100446.51
2018-08-10T12:41:50.711Z,100445.15
2018-08-10T12:44:19.729Z,100452.80
2018-08-10T12:46:48.544Z,100457.73
2018-08-10T12:49:17.353Z,100455.86
2018-08-10T12:51:46.259Z,100457.22
2018-08-10T12:54:15.141Z,100454.50
2018-08-10T12:56:43.958Z,100449.88
2018-08-10T12:59:12.852Z,100455.86
2018-08-10T13:01:41.668Z,100451.24
2018-08-10T13:04:10.537Z,100448.52
2018-08-10T13:06:39.362Z,100451.78
2018-08-10T13:09:11.308Z,100459.40
2018-08-10T13:11:40.367Z,100462.66
2018-08-10T13:14:09.758Z,100464.53
2018-08-10T13:16:38.631Z,100468.10
2018-08-10T13:19:07.498Z,100470.28
2018-08-10T13:21:36.487Z,100476.77
2018-08-10T13:24:05.346Z,100471.84
2018-08-10T13:26:34.912Z,100467.25
2018-08-10T13:29:03.785Z,100477.62
2018-08-10T13:37:31.247Z,100485.09
2018-08-10T13:44:08.020Z,100504.67
2018-08-10T13:46:36.894Z,100519.80
2018-08-10T13:49:05.930Z,100515.71
2018-08-10T13:55:44.625Z,100533.90
2018-08-10T14:01:53.864Z,100540.38
2018-08-10T14:04:23.849Z,100540.89
2018-08-10T14:06:53.134Z,100544.12
2018-08-10T14:09:22.129Z,100551.27
2018-08-10T14:11:50.946Z,100555.34
2018-08-10T14:14:19.809Z,100552.63
2018-08-10T14:17:35.557Z,100556.70
2018-08-10T14:20:05.407Z,100576.24
2018-08-10T14:22:35.517Z,100569.95
2018-08-10T14:25:06.390Z,100573.02
2018-08-10T14:27:35.670Z,100581.17
2018-08-10T14:30:08.669Z,100577.60
2018-08-10T14:32:37.872Z,100587.98
2018-08-10T14:35:07.115Z,100583.89
2018-08-10T14:37:39.151Z,100587.13
2018-08-10T14:40:16.095Z,100600.38
2018-08-10T14:46:52.702Z,100591.91
2018-08-10T14:53:54.530Z,100590.05
2018-08-10T14:56:26.456Z,100590.41
2018-08-10T14:58:55.321Z,100591.45
2018-08-10T15:01:24.184Z,100598.25
2018-08-10T15:03:53.169Z,100601.28
2018-08-10T15:06:22.136Z,100604.00
2018-08-10T15:08:51.008Z,100605.88
2018-08-10T15:11:19.865Z,100599.42
2018-08-10T15:13:48.689Z,100600.44
2018-08-10T15:16:17.567Z,100604.52
2018-08-10T15:18:46.454Z,100601.28
2018-08-10T15:21:15.338Z,100597.72
2018-08-10T15:23:44.209Z,100608.59
2018-08-10T15:26:13.327Z,100603.69
2018-08-10T15:28:42.172Z,100604.70
2018-08-10T15:31:12.262Z,100605.22
2018-08-10T15:33:41.157Z,100605.72
2018-08-10T15:36:09.996Z,100628.33
2018-08-10T15:38:38.975Z,100617.95
2018-08-10T15:41:08.166Z,100613.87
2018-08-10T15:43:37.134Z,100610.66
2018-08-10T15:46:06.100Z,100617.13
2018-08-10T15:48:34.963Z,100617.64
2018-08-10T15:51:03.918Z,100617.64
2018-08-10T15:53:32.768Z,100599.12
2018-08-10T15:56:01.634Z,100623.39
2018-08-10T15:58:30.593Z,100616.28
2018-08-10T16:00:59.575Z,100628.02
2018-08-10T16:03:28.535Z,100629.87
2018-08-10T16:05:57.410Z,100638.03
2018-08-10T16:08:26.298Z,100637.19
2018-08-10T16:10:55.230Z,100637.69
2018-08-10T16:13:24.052Z,100643.98
2018-08-10T16:15:52.885Z,100634.97
2018-08-10T16:18:21.722Z,100640.75
2018-08-10T16:20:50.651Z,100640.25
2018-08-10T16:23:19.600Z,100638.55
2018-08-10T16:25:48.671Z,100645.84
2018-08-10T16:28:17.563Z,100643.98
2018-08-10T16:30:46.450Z,100652.64
2018-08-10T16:33:15.382Z,100643.13
2018-08-10T16:35:44.243Z,100644.48
2018-08-10T16:38:13.293Z,100657.23
2018-08-10T16:40:42.217Z,100664.02
2018-08-10T16:43:11.068Z,100656.72
2018-08-10T16:45:40.008Z,100677.11
2018-08-10T16:48:08.933Z,100678.47
2018-08-10T16:50:37.791Z,100681.70
2018-08-10T16:53:06.837Z,100677.27
2018-08-10T16:55:35.779Z,100680.34
2018-08-10T16:58:04.793Z,100688.15
2018-08-10T17:00:34.174Z,100686.79
2018-08-10T17:03:03.076Z,100685.43
2018-08-10T17:05:31.990Z,100689.51
2018-08-10T17:08:00.857Z,100698.17
2018-08-10T17:10:29.780Z,100696.81
2018-08-10T17:12:59.002Z,100708.54
2018-08-10T17:15:27.919Z,100721.28
2018-08-10T17:17:56.829Z,100718.56
2018-08-10T17:20:25.708Z,100715.84
2018-08-10T17:22:54.501Z,100725.02
2018-08-10T17:25:23.349Z,100729.09
2018-08-10T17:27:52.233Z,100729.09
2018-08-10T17:30:21.203Z,100741.33
2018-08-10T17:32:50.764Z,100739.11
2018-08-10T17:35:19.608Z,100742.37
2018-08-10T17:37:48.633Z,100742.37
2018-08-10T17:40:17.573Z,100746.95
2018-08-10T17:42:51.938Z,100748.31
2018-08-10T17:45:20.845Z,100751.03
2018-08-10T17:47:49.721Z,100749.33
2018-08-10T17:50:20.307Z,100752.05
2018-08-10T17:52:51.896Z,100754.77
2018-08-10T17:55:21.607Z,100763.96
2018-08-10T17:57:50.575Z,100756.63
2018-08-10T18:00:20.882Z,100759.88
2018-08-10T18:02:50.377Z,100763.11
2018-08-10T18:05:20.042Z,100764.47
2018-08-10T18:07:49.087Z,100774.48
2018-08-10T18:10:19.224Z,100762.25
2018-08-10T18:12:48.262Z,100773.63
2018-08-10T18:15:20.990Z,100776.86
2018-08-10T18:17:50.189Z,100783.34
2018-08-10T18:20:21.820Z,100784.70
2018-08-10T18:22:52.010Z,100790.64
2018-08-10T18:25:21.929Z,100806.60
2018-08-10T18:27:51.467Z,100810.36
2018-08-10T18:30:26.346Z,100809.01
2018-08-10T18:32:56.052Z,100820.58
2018-08-10T18:35:25.099Z,100814.59
2018-08-10T18:37:54.993Z,100826.17
2018-08-10T18:40:23.980Z,100835.69
2018-08-10T18:42:53.333Z,100835.69
2018-08-10T18:45:22.889Z,100838.59
2018-08-10T18:47:51.789Z,100842.82
2018-08-10T18:50:21.238Z,100848.77
2018-08-10T18:52:50.339Z,100850.12
2018-08-10T18:55:20.786Z,100813.52
2018-08-10T18:57:50.051Z,100849.45
2018-08-10T19:00:20.472Z,100850.81
2018-08-10T19:02:49.492Z,100864.91
2018-08-10T19:05:18.871Z,100864.59
2018-08-10T19:07:48.399Z,100856.94
2018-08-10T19:10:26.313Z,100835.56
2018-08-10T19:12:55.244Z,100874.45
2018-08-10T19:15:24.331Z,100878.52
2018-08-10T19:17:53.205Z,100887.18
2018-08-10T19:20:22.127Z,100888.72
2018-08-10T19:22:51.101Z,100883.80
2018-08-10T19:25:19.987Z,100891.95
2018-08-10T19:27:48.866Z,100895.36
2018-08-10T19:30:20.496Z,100902.66
2018-08-10T19:32:49.719Z,100904.52
2018-08-10T19:35:19.092Z,100914.53
2018-08-10T19:37:48.113Z,100917.75
2018-08-10T19:40:18.325Z,100919.65
2018-08-10T19:42:47.403Z,100919.11
2018-08-10T19:45:17.115Z,100924.23
2018-08-10T19:47:46.061Z,100933.23
2018-08-10T19:50:16.347Z,100943.76
2018-08-10T19:52:45.262Z,100940.53
2018-08-10T19:55:16.121Z,100942.90
2018-08-10T19:57:45.130Z,100947.48
2018-08-10T20:00:15.820Z,100952.41
2018-08-10T20:02:46.816Z,100964.64
2018-08-10T20:05:15.922Z,100971.44
2018-08-10T20:07:44.768Z,100971.12
2018-08-10T20:10:14.333Z,100971.44
2018-08-10T20:12:43.371Z,100974.66
2018-08-10T20:15:14.024Z,100988.24
2018-08-10T20:17:43.352Z,100985.71
2018-08-10T20:20:14.028Z,100984.35
2018-08-10T20:22:43.065Z,100994.72
2018-08-10T20:25:16.050Z,100989.78
2018-08-10T20:27:45.103Z,100997.94
2018-08-10T20:30:16.061Z,100995.22
2018-08-10T20:32:45.535Z,101008.45
2018-08-10T20:35:16.217Z,101012.53
2018-08-10T20:37:45.264Z,101010.67
2018-08-10T20:40:16.040Z,101015.25
2018-08-10T20:42:44.990Z,101006.78
2018-08-10T20:45:14.169Z,101011.36
2018-08-10T20:47:43.388Z,101010.00
2018-08-10T20:50:15.874Z,101012.22
2018-08-10T20:52:45.315Z,101012.72
2018-08-10T20:55:14.281Z,101018.66
2018-08-10T20:57:43.918Z,101020.52
2018-08-10T21:00:13.902Z,101024.77
2018-08-10T21:02:44.063Z,101026.48
2018-08-10T21:05:13.475Z,101036.50
2018-08-10T21:07:42.422Z,101039.22
2018-08-10T21:10:13.224Z,101036.14
2018-08-10T21:12:43.998Z,101044.80
2018-08-10T21:15:13.943Z,101045.16
2018-08-10T21:17:43.656Z,101046.70
2018-08-10T21:20:14.720Z,101044.80
2018-08-10T21:22:43.814Z,101039.91
2018-08-10T21:25:13.227Z,101043.63
2018-08-10T21:27:42.728Z,101047.70
2018-08-10T21:30:14.186Z,101042.77
2018-08-10T21:32:43.094Z,101043.27
2018-08-10T21:35:12.565Z,101041.59
2018-08-10T21:37:41.464Z,101049.74
2018-08-10T21:40:11.101Z,101039.38
2018-08-10T21:42:40.658Z,101048.88
2018-08-10T21:45:09.522Z,101051.25
2018-08-10T21:47:38.669Z,101051.25
2018-08-10T21:50:10.217Z,101061.27
2018-08-10T21:52:39.136Z,101061.80
2018-08-10T21:55:07.935Z,101061.44
2018-08-10T21:57:36.821Z,101060.58
2018-08-10T22:00:10.579Z,101061.09
2018-08-10T22:02:39.415Z,101057.55
2018-08-10T22:05:08.171Z,101046.83
2018-08-10T22:07:36.954Z,101044.11
2018-08-10T22:10:06.816Z,101049.72
2018-08-10T22:12:39.789Z,101045.30
2018-08-10T22:15:13.823Z,101055.66
2018-08-10T22:17:47.900Z,101051.77
2018-08-10T22:20:16.763Z,101045.12
2018-08-10T22:22:45.583Z,101049.20
2018-08-10T22:25:14.422Z,101053.27
2018-08-10T22:27:43.286Z,101055.63
2018-08-10T22:30:12.086Z,101047.13
2018-08-10T22:32:40.967Z,101044.56
2018-08-10T22:35:09.888Z,101051.70
2018-08-10T22:37:38.760Z,101049.67
2018-08-10T22:40:07.964Z,101045.59
2018-08-10T22:42:36.882Z,101052.89
2018-08-10T22:45:06.402Z,101045.42
2018-08-10T22:47:35.244Z,101050.85
2018-08-10T22:50:04.332Z,101059.00
2018-08-10T22:52:33.109Z,101044.56
2018-08-10T22:55:01.929Z,101046.92
2018-08-10T22:57:30.764Z,101055.25
2018-08-10T22:59:59.857Z,101054.25
2018-08-10T23:02:28.752Z,101048.97
2018-08-10T23:04:57.529Z,101047.11
2018-08-10T23:07:26.353Z,101048.11
2018-08-10T23:09:55.247Z,101033.17
2018-08-10T23:12:24.051Z,101038.95
2018-08-10T23:14:52.881Z,101037.24
2018-08-10T23:17:21.726Z,101040.49
2018-08-10T23:19:50.538Z,101041.31
2018-08-10T23:22:19.666Z,101044.57
2018-08-10T23:24:48.442Z,101046.43
2018-08-10T23:27:17.405Z,101052.86
2018-08-10T23:29:46.184Z,101050.50
2018-08-10T23:32:15.075Z,101052.72
2018-08-10T23:34:43.890Z,101055.44
2018-08-10T23:37:12.695Z,101061.87
2018-08-10T23:39:41.503Z,101059.16
2018-08-10T23:42:10.296Z,101048.79
2018-08-10T23:44:39.096Z,101054.22
2018-08-10T23:47:08.261Z,101040.64
2018-08-10T23:49:37.180Z,101042.00
2018-08-10T23:52:06.116Z,101046.08
2018-08-10T23:54:34.952Z,101044.89
2018-08-10T23:57:03.846Z,101044.39
2018-08-10T23:59:32.716Z,101027.56
